Time,TemperatureF,DewpointF,PressureIn,WindDirection,WindDirectionDegrees,WindSpeedMPH,WindSpeedGustMPH,Humidity,HourlyPrecipIn,Conditions,Clouds,dailyrainin,SoftwareType,DateUTC
2013-02-05 00:00:00,48.6,38.5,30.21,SE,138,0.0,0.0,68,0.00,CLR,,0.00,WeatherDisplay:10.37,2013-02-05 08:00:00,
2013-02-05 00:05:00,48.2,38.1,30.21,SE,138,0.0,0.0,68,0.00,CLR,,0.00,WeatherDisplay:10.37,2013-02-05 08:05:00,
2013-02-05 00:10:00,47.8,37.8,30.21,SE,138,0.0,0.0,68,0.00,CLR,,0.00,WeatherDisplay:10.37,2013-02-05 08:10:00,
2013-02-05 00:15:00,47.5,37.4,30.21,SE,138,0.0,0.0,68,0.00,CLR,,0.00,WeatherDisplay:10.37,2013-02-05 08:15:00,
2013-02-05 00:20:00,47.3,37.6,30.21,SE,138,0.0,0.0,69,0.00,CLR,,0.00,WeatherDisplay:10.37,2013-02-05 08:20:00,
2013-02-05 00:25:00,47.1,37.5,30.21,SE,138,0.0,0.0,69,0.00,CLR,,0.00,WeatherDisplay:10.37,2013-02-05 08:25:00,
2013-02-05 00:30:00,46.9,37.3,30.21,SE,138,0.0,0.0,69,0.00,CLR,,0.00,WeatherDisplay:10.37,2013-02-05 08:30:00,
2013-02-05 00:35:00,46.9,37.7,30.21,SE,138,0.0,0.0,70,0.00,CLR,,0.00,WeatherDisplay:10.37,2013-02-05 08:35:00,
2013-02-05 00:40:00,46.9,37.7,30.21,SE,138,0.0,0.0,70,0.00,CLR,,0.00,WeatherDisplay:10.37,2013-02-05 08:40:00,
2013-02-05 00:45:00,46.9,37.7,30.21,SE,138,0.0,0.0,70,0.00,CLR,,0.00,WeatherDisplay:10.37,2013-02-05 08:45:00,
2013-02-05 00:50:00,46.8,37.9,30.21,SE,138,0.0,0.0,71,0.00,CLR,,0.00,WeatherDisplay:10.37,2013-02-05 08:50:00,
2013-02-05 00:55:00,46.8,37.9,30.21,SE,138,0.0,0.0,71,0.00,CLR,,0.00,WeatherDisplay:10.37,2013-02-05 08:55:00,
2013-02-05 01:00:00,46.8,38.2,30.21,SE,138,0.0,0.0,72,0.00,CLR,,0.00,WeatherDisplay:10.37,2013-02-05 09:00:00,
2013-02-05 01:05:00,46.6,38.0,30.21,SE,138,0.0,0.0,72,0.00,CLR,,0.00,WeatherDisplay:10.37,2013-02-05 09:05:00,
2013-02-05 01:10:00,46.4,37.9,30.21,SE,138,0.0,0.0,72,0.00,CLR,,0.00,WeatherDisplay:10.37,2013-02-05 09:10:00,
2013-02-05 01:15:00,46.2,38.0,30.21,SE,138,0.0,0.0,73,0.00,CLR,,0.00,WeatherDisplay:10.37,2013-02-05 09:15:00,
2013-02-05 01:20:00,45.9,37.7,30.21,SE,138,0.0,0.0,73,0.00,CLR,,0.00,WeatherDisplay:10.37,2013-02-05 09:20:00,
2013-02-05 01:25:00,45.9,38.0,30.21,SE,138,0.0,0.0,74,0.00,CLR,,0.00,WeatherDisplay:10.37,2013-02-05 09:25:00,
2013-02-05 01:30:00,46.0,38.2,30.21,SE,138,0.0,0.0,74,0.00,CLR,,0.00,WeatherDisplay:10.37,2013-02-05 09:30:00,
2013-02-05 01:35:00,45.9,38.0,30.21,SE,138,0.0,0.0,74,0.00,CLR,,0.00,WeatherDisplay:10.37,2013-02-05 09:35:00,
2013-02-05 01:40:00,45.7,37.9,30.21,SE,138,0.0,0.0,74,0.00,CLR,,0.00,WeatherDisplay:10.37,2013-02-05 09:40:00,
2013-02-05 01:45:00,45.9,38.0,30.18,SE,138,0.0,0.0,74,0.00,CLR,,0.00,WeatherDisplay:10.37,2013-02-05 09:45:00,
2013-02-05 01:50:00,45.9,38.4,30.18,SE,138,0.0,0.0,75,0.00,CLR,,0.00,WeatherDisplay:10.37,2013-02-05 09:50:00,
2013-02-05 01:55:00,45.9,38.4,30.18,SE,138,0.0,0.0,75,0.00,CLR,,0.00,WeatherDisplay:10.37,2013-02-05 09:55:00,
2013-02-05 02:00:00,45.9,38.4,30.21,SE,138,0.0,0.0,75,0.00,CLR,,0.00,WeatherDisplay:10.37,2013-02-05 10:00:00,
2013-02-05 02:05:00,45.9,38.4,30.21,SE,138,0.0,0.0,75,0.00,CLR,,0.00,WeatherDisplay:10.37,2013-02-05 10:05:00,
2013-02-05 02:10:00,45.3,37.9,30.21,SE,138,0.0,0.0,75,0.00,CLR,,0.00,WeatherDisplay:10.37,2013-02-05 10:10:00,
2013-02-05 02:15:00,45.1,37.7,30.18,SE,138,0.0,0.0,75,0.00,CLR,,0.00,WeatherDisplay:10.37,2013-02-05 10:15:00,
2013-02-05 02:20:00,44.8,37.3,30.18,NE,54,0.0,0.0,75,0.00,CLR,,0.00,WeatherDisplay:10.37,2013-02-05 10:20:00,
2013-02-05 02:25:00,44.8,37.7,30.18,NE,54,0.0,0.0,76,0.00,CLR,,0.00,WeatherDisplay:10.37,2013-02-05 10:25:00,
2013-02-05 02:30:00,45.1,38.0,30.18,NE,54,0.0,0.0,76,0.00,CLR,,0.00,WeatherDisplay:10.37,2013-02-05 10:30:00,
2013-02-05 02:35:00,45.5,38.7,30.18,NE,54,0.0,0.0,77,0.00,CLR,,0.00,WeatherDisplay:10.37,2013-02-05 10:35:00,
2013-02-05 02:40:00,45.7,38.9,30.18,NE,54,0.0,0.0,77,0.00,CLR,,0.00,WeatherDisplay:10.37,2013-02-05 10:40:00,
2013-02-05 02:45:00,45.9,39.1,30.18,NE,54,0.0,0.0,77,0.00,CLR,,0.00,WeatherDisplay:10.37,2013-02-05 10:45:00,
2013-02-05 02:50:00,46.0,39.6,30.18,NE,54,0.0,0.0,78,0.00,CLR,,0.00,WeatherDisplay:10.37,2013-02-05 10:50:00,
2013-02-05 02:55:00,46.0,39.2,30.18,NE,54,0.0,0.0,77,0.00,CLR,,0.00,WeatherDisplay:10.37,2013-02-05 10:55:00,
2013-02-05 03:00:00,45.7,38.9,30.18,ENE,60,0.0,0.0,77,0.00,CLR,,0.00,WeatherDisplay:10.37,2013-02-05 11:00:00,
2013-02-05 03:05:00,45.3,38.5,30.18,ENE,60,0.0,0.0,77,0.00,CLR,,0.00,WeatherDisplay:10.37,2013-02-05 11:05:00,
2013-02-05 03:10:00,45.1,38.7,30.18,ENE,60,0.0,0.0,78,0.00,CLR,,0.00,WeatherDisplay:10.37,2013-02-05 11:10:00,
2013-02-05 03:15:00,44.8,38.3,30.18,ENE,60,0.0,0.0,78,0.00,CLR,,0.00,WeatherDisplay:10.37,2013-02-05 11:15:00,
2013-02-05 03:20:00,44.6,38.2,30.18,ENE,60,0.0,0.0,78,0.00,CLR,,0.00,WeatherDisplay:10.37,2013-02-05 11:20:00,
2013-02-05 03:25:00,44.6,38.2,30.18,ENE,60,0.0,0.0,78,0.00,CLR,,0.00,WeatherDisplay:10.37,2013-02-05 11:25:00,
2013-02-05 03:30:00,44.6,38.2,30.18,ENE,60,0.0,0.0,78,0.00,CLR,,0.00,WeatherDisplay:10.37,2013-02-05 11:30:00,
2013-02-05 03:35:00,44.2,38.1,30.18,ENE,60,0.0,0.0,79,0.00,CLR,,0.00,WeatherDisplay:10.37,2013-02-05 11:35:00,
2013-02-05 03:40:00,44.2,38.1,30.18,ENE,60,0.0,0.0,79,0.00,CLR,,0.00,WeatherDisplay:10.37,2013-02-05 11:40:00,
2013-02-05 03:45:00,44.2,38.1,30.15,NE,55,0.0,0.0,79,0.00,CLR,,0.00,WeatherDisplay:10.37,2013-02-05 11:45:00,
2013-02-05 03:50:00,44.2,38.5,30.15,NNE,15,3.5,0.0,80,0.00,CLR,,0.00,WeatherDisplay:10.37,2013-02-05 11:50:00,
2013-02-05 03:55:00,44.2,38.5,30.15,NE,39,3.5,0.0,80,0.00,CLR,,0.00,WeatherDisplay:10.37,2013-02-05 11:55:00,
2013-02-05 04:00:00,44.2,38.5,30.18,NE,38,2.3,0.0,80,0.00,CLR,,0.00,WeatherDisplay:10.37,2013-02-05 12:00:00,
2013-02-05 04:05:00,44.2,38.5,30.18,NNE,25,3.5,0.0,80,0.00,CLR,,0.00,WeatherDisplay:10.37,2013-02-05 12:05:00,
2013-02-05 04:10:00,44.1,38.3,30.18,NNE,28,0.0,0.0,80,0.00,CLR,,0.00,WeatherDisplay:10.37,2013-02-05 12:10:00,
2013-02-05 04:15:00,43.7,37.9,30.15,NE,49,3.5,3.5,80,0.00,CLR,,0.00,WeatherDisplay:10.37,2013-02-05 12:15:00,
2013-02-05 04:20:00,43.5,37.8,30.15,NE,49,0.0,0.0,80,0.00,CLR,,0.00,WeatherDisplay:10.37,2013-02-05 12:20:00,
2013-02-05 04:25:00,43.3,37.6,30.15,NE,49,0.0,0.0,80,0.00,CLR,,0.00,WeatherDisplay:10.37,2013-02-05 12:25:00,
2013-02-05 04:30:00,43.2,37.4,30.15,NE,49,0.0,0.0,80,0.00,CLR,,0.00,WeatherDisplay:10.37,2013-02-05 12:30:00,
2013-02-05 04:35:00,43.0,37.2,30.15,NE,49,0.0,0.0,80,0.00,CLR,,0.00,WeatherDisplay:10.37,2013-02-05 12:35:00,
2013-02-05 04:40:00,42.8,37.1,30.15,NE,49,0.0,0.0,80,0.00,CLR,,0.00,WeatherDisplay:10.37,2013-02-05 12:40:00,
2013-02-05 04:45:00,42.8,37.1,30.15,NE,49,0.0,0.0,80,0.00,CLR,,0.00,WeatherDisplay:10.37,2013-02-05 12:45:00,
2013-02-05 04:50:00,42.6,37.2,30.15,NE,49,0.0,0.0,81,0.00,CLR,,0.00,WeatherDisplay:10.37,2013-02-05 12:50:00,
2013-02-05 04:55:00,42.8,37.4,30.15,NE,49,0.0,0.0,81,0.00,CLR,,0.00,WeatherDisplay:10.37,2013-02-05 12:55:00,
2013-02-05 05:00:00,43.2,38.0,30.15,NE,49,0.0,0.0,82,0.00,CLR,,0.00,WeatherDisplay:10.37,2013-02-05 13:00:00,
2013-02-05 05:05:00,43.7,38.6,30.15,NE,49,0.0,0.0,82,0.00,CLR,,0.00,WeatherDisplay:10.37,2013-02-05 13:05:00,
2013-02-05 05:10:00,44.1,38.9,30.15,NE,49,0.0,0.0,82,0.00,CLR,,0.00,WeatherDisplay:10.37,2013-02-05 13:10:00,
2013-02-05 05:15:00,44.1,38.9,30.15,NE,49,0.0,0.0,82,0.00,CLR,,0.00,WeatherDisplay:10.37,2013-02-05 13:15:00,
2013-02-05 05:20:00,43.9,38.4,30.15,NE,49,0.0,0.0,81,0.00,CLR,,0.00,WeatherDisplay:10.37,2013-02-05 13:20:00,
2013-02-05 05:25:00,43.5,38.1,30.15,NE,49,0.0,0.0,81,0.00,CLR,,0.00,WeatherDisplay:10.37,2013-02-05 13:25:00,
2013-02-05 05:30:00,43.3,37.9,30.15,NE,49,0.0,0.0,81,0.00,CLR,,0.00,WeatherDisplay:10.37,2013-02-05 13:30:00,
2013-02-05 05:35:00,42.8,37.4,30.15,NE,49,0.0,0.0,81,0.00,CLR,,0.00,WeatherDisplay:10.37,2013-02-05 13:35:00,
2013-02-05 05:40:00,42.6,37.2,30.15,NE,53,0.0,0.0,81,0.00,CLR,,0.00,WeatherDisplay:10.37,2013-02-05 13:40:00,
2013-02-05 05:45:00,42.6,37.5,30.15,ENE,59,0.0,0.0,82,0.00,CLR,,0.00,WeatherDisplay:10.37,2013-02-05 13:45:00,
2013-02-05 05:50:00,42.6,37.5,30.15,ENE,59,0.0,0.0,82,0.00,CLR,,0.00,WeatherDisplay:10.37,2013-02-05 13:50:00,
2013-02-05 05:55:00,42.6,37.5,30.15,ENE,59,0.0,0.0,82,0.00,CLR,,0.00,WeatherDisplay:10.37,2013-02-05 13:55:00,
2013-02-05 06:00:00,42.6,37.5,30.15,ENE,65,0.0,0.0,82,0.00,CLR,,0.00,WeatherDisplay:10.37,2013-02-05 14:00:00,
2013-02-05 06:05:00,42.6,37.5,30.15,NE,56,0.0,0.0,82,0.00,CLR,,0.00,WeatherDisplay:10.37,2013-02-05 14:05:00,
2013-02-05 06:10:00,42.8,38.0,30.15,NE,56,0.0,0.0,83,0.00,CLR,,0.00,WeatherDisplay:10.37,2013-02-05 14:10:00,
2013-02-05 06:15:00,42.8,37.7,30.15,NE,56,0.0,0.0,82,0.00,CLR,,0.00,WeatherDisplay:10.37,2013-02-05 14:15:00,
2013-02-05 06:20:00,42.8,37.7,30.15,NE,56,0.0,0.0,82,0.00,CLR,,0.00,WeatherDisplay:10.37,2013-02-05 14:20:00,
2013-02-05 06:25:00,42.6,37.8,30.15,NE,56,0.0,0.0,83,0.00,CLR,,0.00,WeatherDisplay:10.37,2013-02-05 14:25:00,
2013-02-05 06:30:00,42.4,37.6,30.15,NE,56,0.0,0.0,83,0.00,CLR,,0.00,WeatherDisplay:10.37,2013-02-05 14:30:00,
2013-02-05 06:35:00,42.4,37.6,30.15,NE,56,0.0,0.0,83,0.00,CLR,,0.00,WeatherDisplay:10.37,2013-02-05 14:35:00,
2013-02-05 06:40:00,42.3,37.5,30.15,NE,56,0.0,0.0,83,0.00,CLR,,0.00,WeatherDisplay:10.37,2013-02-05 14:40:00,
2013-02-05 06:45:00,42.1,37.3,30.15,NE,51,0.0,0.0,83,0.00,CLR,,0.00,WeatherDisplay:10.37,2013-02-05 14:45:00,
2013-02-05 06:50:00,42.1,37.3,30.15,NE,51,0.0,0.0,83,0.00,CLR,,0.00,WeatherDisplay:10.37,2013-02-05 14:50:00,
2013-02-05 06:55:00,42.1,37.3,30.15,North,2,2.3,0.0,83,0.00,CLR,,0.00,WeatherDisplay:10.37,2013-02-05 14:55:00,
2013-02-05 07:00:00,42.1,37.3,30.18,North,2,0.0,0.0,83,0.00,CLR,,0.00,WeatherDisplay:10.37,2013-02-05 15:00:00,
2013-02-05 07:05:00,42.1,37.3,30.18,North,2,0.0,0.0,83,0.00,CLR,,0.00,WeatherDisplay:10.37,2013-02-05 15:05:00,
2013-02-05 07:10:00,42.3,37.8,30.18,North,2,0.0,0.0,84,0.00,CLR,,0.00,WeatherDisplay:10.37,2013-02-05 15:10:00,
2013-02-05 07:15:00,42.4,37.9,30.18,North,2,0.0,0.0,84,0.00,CLR,,0.00,WeatherDisplay:10.37,2013-02-05 15:15:00,
2013-02-05 07:20:00,42.6,38.1,30.18,North,2,0.0,0.0,84,0.00,CLR,,0.00,WeatherDisplay:10.37,2013-02-05 15:20:00,
2013-02-05 07:25:00,42.6,38.1,30.18,North,2,0.0,0.0,84,0.00,CLR,,0.00,WeatherDisplay:10.37,2013-02-05 15:25:00,
2013-02-05 07:30:00,42.6,38.1,30.18,North,2,0.0,0.0,84,0.00,CLR,,0.00,WeatherDisplay:10.37,2013-02-05 15:30:00,
2013-02-05 07:35:00,42.4,37.9,30.18,ENE,71,0.0,0.0,84,0.00,CLR,,0.00,WeatherDisplay:10.37,2013-02-05 15:35:00,
2013-02-05 07:40:00,42.4,37.9,30.18,ESE,118,0.0,0.0,84,0.00,CLR,,0.00,WeatherDisplay:10.37,2013-02-05 15:40:00,
2013-02-05 07:45:00,42.6,38.1,30.18,ESE,118,0.0,0.0,84,0.00,CLR,,0.00,WeatherDisplay:10.37,2013-02-05 15:45:00,
2013-02-05 07:50:00,43.0,38.5,30.18,ESE,115,0.0,0.0,84,0.00,CLR,,0.00,WeatherDisplay:10.37,2013-02-05 15:50:00,
2013-02-05 07:55:00,43.3,38.8,30.18,SE,130,2.3,0.0,84,0.00,CLR,,0.00,WeatherDisplay:10.37,2013-02-05 15:55:00,
2013-02-05 08:00:00,43.7,39.2,30.21,SE,130,0.0,0.0,84,0.00,CLR,,0.00,WeatherDisplay:10.37,2013-02-05 16:00:00,
2013-02-05 08:05:00,43.9,39.4,30.21,SE,130,0.0,0.0,84,0.00,CLR,,0.00,WeatherDisplay:10.37,2013-02-05 16:05:00,
2013-02-05 08:10:00,44.4,40.2,30.21,WSW,241,2.3,0.0,85,0.00,CLR,,0.00,WeatherDisplay:10.37,2013-02-05 16:10:00,
2013-02-05 08:15:00,45.1,40.9,30.21,SW,220,0.0,0.0,85,0.00,CLR,,0.00,WeatherDisplay:10.37,2013-02-05 16:15:00,
2013-02-05 08:20:00,45.7,41.4,30.21,SW,216,2.3,0.0,85,0.00,CLR,,0.00,WeatherDisplay:10.37,2013-02-05 16:20:00,
2013-02-05 08:25:00,46.2,42.0,30.21,SSE,150,0.0,0.0,85,0.00,CLR,,0.00,WeatherDisplay:10.37,2013-02-05 16:25:00,
2013-02-05 08:31:00,46.8,42.5,30.21,WNW,302,0.0,0.0,85,0.00,CLR,,0.00,WeatherDisplay:10.37,2013-02-05 16:31:00,
2013-02-05 08:36:00,46.9,42.4,30.21,East,89,0.0,0.0,84,0.00,CLR,,0.00,WeatherDisplay:10.37,2013-02-05 16:36:00,
2013-02-05 08:41:00,46.9,42.4,30.21,WSW,255,3.5,0.0,84,0.00,CLR,,0.00,WeatherDisplay:10.37,2013-02-05 16:41:00,
2013-02-05 08:46:00,46.8,42.2,30.21,WSW,243,2.3,0.0,84,0.00,CLR,,0.00,WeatherDisplay:10.37,2013-02-05 16:46:00,
2013-02-05 08:51:00,46.6,41.7,30.21,East,86,0.0,0.0,83,0.00,CLR,,0.00,WeatherDisplay:10.37,2013-02-05 16:51:00,
2013-02-05 08:56:00,46.4,41.5,30.21,SE,125,2.3,0.0,83,0.00,CLR,,0.00,WeatherDisplay:10.37,2013-02-05 16:56:00,
2013-02-05 09:01:00,46.4,41.5,30.24,NE,52,2.3,0.0,83,0.00,CLR,,0.00,WeatherDisplay:10.37,2013-02-05 17:01:00,
2013-02-05 09:06:00,46.4,41.5,30.24,SW,223,0.0,0.0,83,0.00,CLR,,0.00,WeatherDisplay:10.37,2013-02-05 17:06:00,
2013-02-05 09:11:00,46.6,41.7,30.24,WNW,284,0.0,0.0,83,0.00,CLR,,0.00,WeatherDisplay:10.37,2013-02-05 17:11:00,
2013-02-05 09:16:00,46.8,42.2,30.24,WSW,242,0.0,0.0,84,0.00,CLR,,0.00,WeatherDisplay:10.37,2013-02-05 17:16:00,
2013-02-05 09:21:00,47.1,42.5,30.24,ESE,118,2.3,0.0,84,0.00,CLR,,0.00,WeatherDisplay:10.37,2013-02-05 17:21:00,
2013-02-05 09:26:00,47.3,42.7,30.24,NE,56,0.0,0.0,84,0.00,CLR,,0.00,WeatherDisplay:10.37,2013-02-05 17:26:00,
2013-02-05 09:31:00,47.8,43.2,30.24,SW,225,0.0,0.0,84,0.00,CLR,,0.00,WeatherDisplay:10.37,2013-02-05 17:31:00,
2013-02-05 09:36:00,48.0,43.4,30.24,ESE,115,0.0,0.0,84,0.00,CLR,,0.00,WeatherDisplay:10.37,2013-02-05 17:36:00,
2013-02-05 09:41:00,48.4,43.8,30.24,SSW,194,0.0,0.0,84,0.00,CLR,,0.00,WeatherDisplay:10.37,2013-02-05 17:41:00,
2013-02-05 09:46:00,48.6,43.9,30.24,WSW,239,0.0,0.0,84,0.00,CLR,,0.00,WeatherDisplay:10.37,2013-02-05 17:46:00,
2013-02-05 09:51:00,48.9,44.3,30.24,WSW,247,2.3,0.0,84,0.00,CLR,,0.00,WeatherDisplay:10.37,2013-02-05 17:51:00,
2013-02-05 09:56:00,48.9,44.3,30.24,SSW,200,2.3,0.0,84,0.00,CLR,,0.00,WeatherDisplay:10.37,2013-02-05 17:56:00,
2013-02-05 10:01:00,49.5,44.8,30.24,SW,236,0.0,0.0,84,0.00,CLR,,0.00,WeatherDisplay:10.37,2013-02-05 18:01:00,
2013-02-05 10:06:00,49.8,45.2,30.24,SW,220,0.0,0.0,84,0.00,CLR,,0.00,WeatherDisplay:10.37,2013-02-05 18:06:00,
2013-02-05 10:11:00,50.0,45.0,30.24,WSW,258,0.0,0.0,83,0.00,CLR,,0.00,WeatherDisplay:10.37,2013-02-05 18:11:00,
2013-02-05 10:16:00,50.2,45.2,30.24,SW,214,2.3,0.0,83,0.00,CLR,,0.00,WeatherDisplay:10.37,2013-02-05 18:16:00,
2013-02-05 10:21:00,50.5,45.6,30.24,West,264,3.5,0.0,83,0.00,CLR,,0.00,WeatherDisplay:10.37,2013-02-05 18:21:00,
2013-02-05 10:26:00,50.9,45.9,30.24,SSW,208,0.0,0.0,83,0.00,CLR,,0.00,WeatherDisplay:10.37,2013-02-05 18:26:00,
2013-02-05 10:31:00,51.4,46.1,30.24,ESE,109,0.0,0.0,82,0.00,CLR,,0.00,WeatherDisplay:10.37,2013-02-05 18:31:00,
2013-02-05 10:36:00,51.6,46.3,30.24,East,83,2.3,0.0,82,0.00,CLR,,0.00,WeatherDisplay:10.37,2013-02-05 18:36:00,
2013-02-05 10:41:00,52.2,46.5,30.24,SW,219,2.3,0.0,81,0.00,CLR,,0.00,WeatherDisplay:10.37,2013-02-05 18:41:00,
2013-02-05 10:46:00,52.7,46.7,30.24,WSW,243,2.3,0.0,80,0.00,CLR,,0.00,WeatherDisplay:10.37,2013-02-05 18:46:00,
2013-02-05 10:51:00,53.2,46.9,30.24,SW,225,0.0,0.0,79,0.00,CLR,,0.00,WeatherDisplay:10.37,2013-02-05 18:51:00,
2013-02-05 10:56:00,53.8,46.7,30.24,WSW,238,2.3,0.0,77,0.00,CLR,,0.00,WeatherDisplay:10.37,2013-02-05 18:56:00,
2013-02-05 11:01:00,54.3,46.6,30.24,SSW,199,2.3,0.0,75,0.00,CLR,,0.00,WeatherDisplay:10.37,2013-02-05 19:01:00,
2013-02-05 11:06:00,54.9,46.4,30.24,SW,232,2.3,0.0,73,0.00,CLR,,0.00,WeatherDisplay:10.37,2013-02-05 19:06:00,
2013-02-05 11:11:00,55.2,46.3,30.24,SSW,203,3.1,0.0,72,0.00,CLR,,0.00,WeatherDisplay:10.37,2013-02-05 19:11:00,
2013-02-05 11:16:00,55.9,45.9,30.21,WSW,254,2.3,0.0,69,0.00,CLR,,0.00,WeatherDisplay:10.37,2013-02-05 19:16:00,
2013-02-05 11:21:00,56.3,45.5,30.21,NNE,21,3.5,0.0,67,0.00,CLR,,0.00,WeatherDisplay:10.37,2013-02-05 19:21:00,
2013-02-05 11:26:00,56.7,44.6,30.21,WSW,237,3.5,0.0,64,0.00,CLR,,0.00,WeatherDisplay:10.37,2013-02-05 19:26:00,
2013-02-05 11:31:00,56.8,43.5,30.21,WSW,246,4.6,4.6,61,0.00,CLR,,0.00,WeatherDisplay:10.37,2013-02-05 19:31:00,
2013-02-05 11:36:00,57.0,42.8,30.21,WSW,245,3.5,3.5,59,0.00,CLR,,0.00,WeatherDisplay:10.37,2013-02-05 19:36:00,
2013-02-05 11:41:00,57.0,41.5,30.21,WSW,249,3.5,3.5,56,0.00,CLR,,0.00,WeatherDisplay:10.37,2013-02-05 19:41:00,
2013-02-05 11:46:00,57.2,41.2,30.21,West,281,3.5,3.5,55,0.00,CLR,,0.00,WeatherDisplay:10.37,2013-02-05 19:46:00,
2013-02-05 11:51:00,57.2,40.7,30.21,SW,226,3.5,3.5,54,0.00,CLR,,0.00,WeatherDisplay:10.37,2013-02-05 19:51:00,
2013-02-05 11:56:00,57.6,40.5,30.21,NW,316,4.6,4.6,53,0.00,CLR,,0.00,WeatherDisplay:10.37,2013-02-05 19:56:00,
2013-02-05 12:01:00,57.9,40.4,30.21,West,265,5.8,5.8,52,0.00,CLR,,0.00,WeatherDisplay:10.37,2013-02-05 20:01:00,
2013-02-05 12:06:00,57.7,39.7,30.21,WNW,283,5.8,5.8,51,0.00,CLR,,0.00,WeatherDisplay:10.37,2013-02-05 20:06:00,
2013-02-05 12:11:00,57.4,39.4,30.21,East,89,3.5,3.5,51,0.00,CLR,,0.00,WeatherDisplay:10.37,2013-02-05 20:11:00,
2013-02-05 12:16:00,57.2,38.7,30.18,SSE,159,3.5,3.5,50,0.00,CLR,,0.00,WeatherDisplay:10.37,2013-02-05 20:16:00,
2013-02-05 12:21:00,57.4,39.4,30.18,SE,144,3.5,3.5,51,0.00,CLR,,0.00,WeatherDisplay:10.37,2013-02-05 20:21:00,
2013-02-05 12:26:00,57.7,39.7,30.18,WNW,301,3.5,3.5,51,0.00,CLR,,0.00,WeatherDisplay:10.37,2013-02-05 20:26:00,
2013-02-05 12:31:00,57.4,38.4,30.18,SSE,168,3.5,3.6,49,0.00,CLR,,0.00,WeatherDisplay:10.37,2013-02-05 20:31:00,
2013-02-05 12:36:00,57.4,38.9,30.18,WNW,290,3.5,0.0,50,0.00,CLR,,0.00,WeatherDisplay:10.37,2013-02-05 20:36:00,
2013-02-05 12:41:00,57.9,39.9,30.18,ENE,67,3.5,0.0,51,0.00,CLR,,0.00,WeatherDisplay:10.37,2013-02-05 20:41:00,
2013-02-05 12:46:00,58.6,40.0,30.15,SSE,160,0.0,0.0,50,0.00,CLR,,0.00,WeatherDisplay:10.37,2013-02-05 20:46:00,
2013-02-05 12:51:00,59.4,40.2,30.15,ESE,112,3.5,3.5,49,0.00,CLR,,0.00,WeatherDisplay:10.37,2013-02-05 20:51:00,
2013-02-05 12:56:00,59.5,39.8,30.15,SW,229,0.0,0.0,48,0.00,CLR,,0.00,WeatherDisplay:10.37,2013-02-05 20:56:00,
2013-02-05 13:01:00,59.9,39.6,30.15,West,268,3.5,3.5,47,0.00,CLR,,0.00,WeatherDisplay:10.37,2013-02-05 21:01:00,
2013-02-05 13:06:00,60.1,39.2,30.15,WNW,289,3.5,3.5,46,0.00,CLR,,0.00,WeatherDisplay:10.37,2013-02-05 21:06:00,
2013-02-05 13:11:00,60.1,38.7,30.15,WNW,301,3.5,3.5,45,0.00,CLR,,0.00,WeatherDisplay:10.37,2013-02-05 21:11:00,
2013-02-05 13:16:00,60.1,38.7,30.15,West,270,3.5,0.0,45,0.00,CLR,,0.00,WeatherDisplay:10.37,2013-02-05 21:16:00,
2013-02-05 13:21:00,60.3,38.2,30.15,WSW,244,4.6,4.6,44,0.00,CLR,,0.00,WeatherDisplay:10.37,2013-02-05 21:21:00,
2013-02-05 13:26:00,60.6,38.6,30.15,WSW,247,5.8,5.8,44,0.00,CLR,,0.00,WeatherDisplay:10.37,2013-02-05 21:26:00,
2013-02-05 13:31:00,60.8,38.7,30.15,WSW,239,5.8,5.8,44,0.00,CLR,,0.00,WeatherDisplay:10.37,2013-02-05 21:31:00,
2013-02-05 13:36:00,60.4,38.4,30.15,West,273,3.5,3.5,44,0.00,CLR,,0.00,WeatherDisplay:10.37,2013-02-05 21:36:00,
2013-02-05 13:41:00,60.3,37.7,30.15,WSW,251,5.8,5.8,43,0.00,CLR,,0.00,WeatherDisplay:10.37,2013-02-05 21:41:00,
2013-02-05 13:46:00,59.7,37.8,30.15,SW,236,0.0,0.0,44,0.00,CLR,,0.00,WeatherDisplay:10.37,2013-02-05 21:46:00,
2013-02-05 13:51:00,59.9,38.5,30.15,WSW,251,5.8,5.8,45,0.00,CLR,,0.00,WeatherDisplay:10.37,2013-02-05 21:51:00,
2013-02-05 13:56:00,59.9,38.5,30.15,SW,227,3.5,3.5,45,0.00,CLR,,0.00,WeatherDisplay:10.37,2013-02-05 21:56:00,
2013-02-05 14:01:00,60.1,38.7,30.15,ESE,111,3.5,0.0,45,0.00,CLR,,0.00,WeatherDisplay:10.37,2013-02-05 22:01:00,
2013-02-05 14:06:00,60.6,39.1,30.15,WSW,254,3.5,3.5,45,0.00,CLR,,0.00,WeatherDisplay:10.37,2013-02-05 22:06:00,
2013-02-05 14:11:00,60.6,38.6,30.15,WSW,241,2.7,0.0,44,0.00,CLR,,0.00,WeatherDisplay:10.37,2013-02-05 22:11:00,
2013-02-05 14:16:00,61.0,38.9,30.15,WSW,251,3.5,3.5,44,0.00,CLR,,0.00,WeatherDisplay:10.37,2013-02-05 22:16:00,
2013-02-05 14:21:00,61.5,38.8,30.15,SW,217,3.5,3.5,43,0.00,CLR,,0.00,WeatherDisplay:10.37,2013-02-05 22:21:00,
2013-02-05 14:26:00,61.7,38.4,30.15,West,259,3.5,3.5,42,0.00,CLR,,0.00,WeatherDisplay:10.37,2013-02-05 22:26:00,
2013-02-05 14:31:00,61.9,37.9,30.15,WSW,243,6.9,6.9,41,0.00,CLR,,0.00,WeatherDisplay:10.37,2013-02-05 22:31:00,
2013-02-05 14:36:00,61.7,37.7,30.15,West,266,2.3,0.0,41,0.00,CLR,,0.00,WeatherDisplay:10.37,2013-02-05 22:36:00,
2013-02-05 14:41:00,61.3,37.4,30.15,WSW,247,2.3,0.0,41,0.00,CLR,,0.00,WeatherDisplay:10.37,2013-02-05 22:41:00,
2013-02-05 14:46:00,61.0,36.5,30.15,WSW,252,5.8,5.8,40,0.00,CLR,,0.00,WeatherDisplay:10.37,2013-02-05 22:46:00,
2013-02-05 14:51:00,60.8,36.9,30.15,WNW,284,3.5,3.5,41,0.00,CLR,,0.00,WeatherDisplay:10.37,2013-02-05 22:51:00,
2013-02-05 14:56:00,60.8,37.5,30.15,WSW,237,5.8,5.8,42,0.00,CLR,,0.00,WeatherDisplay:10.37,2013-02-05 22:56:00,
2013-02-05 15:01:00,61.0,38.3,30.15,ENE,70,0.0,0.0,43,0.00,CLR,,0.00,WeatherDisplay:10.37,2013-02-05 23:01:00,
2013-02-05 15:06:00,61.3,38.0,30.15,WNW,303,3.5,3.5,42,0.00,CLR,,0.00,WeatherDisplay:10.37,2013-02-05 23:06:00,
2013-02-05 15:11:00,61.2,37.9,30.15,WSW,249,2.3,0.0,42,0.00,CLR,,0.00,WeatherDisplay:10.37,2013-02-05 23:11:00,
2013-02-05 15:16:00,61.0,37.7,30.12,NW,311,2.3,0.0,42,0.00,CLR,,0.00,WeatherDisplay:10.37,2013-02-05 23:16:00,
2013-02-05 15:21:00,61.3,37.4,30.12,SW,216,0.0,0.0,41,0.00,CLR,,0.00,WeatherDisplay:10.37,2013-02-05 23:21:00,
2013-02-05 15:26:00,61.2,37.3,30.12,East,81,3.5,0.0,41,0.00,CLR,,0.00,WeatherDisplay:10.37,2013-02-05 23:26:00,
2013-02-05 15:31:00,60.8,36.3,30.12,ESE,109,3.5,0.0,40,0.00,CLR,,0.00,WeatherDisplay:10.37,2013-02-05 23:31:00,
2013-02-05 15:36:00,60.3,36.4,30.12,East,92,3.5,3.5,41,0.00,CLR,,0.00,WeatherDisplay:10.37,2013-02-05 23:36:00,
2013-02-05 15:41:00,59.7,36.0,30.12,SW,215,4.0,0.0,41,0.00,CLR,,0.00,WeatherDisplay:10.37,2013-02-05 23:41:00,
2013-02-05 15:46:00,59.2,36.1,30.12,SW,230,3.5,0.0,42,0.00,CLR,,0.00,WeatherDisplay:10.37,2013-02-05 23:46:00,
2013-02-05 15:51:00,58.5,36.6,30.12,WNW,299,3.5,3.5,44,0.00,CLR,,0.00,WeatherDisplay:10.37,2013-02-05 23:51:00,
2013-02-05 15:56:00,57.7,36.5,30.12,NE,36,3.5,3.5,45,0.00,CLR,,0.00,WeatherDisplay:10.37,2013-02-05 23:56:00,
2013-02-05 16:01:00,57.0,36.4,30.12,East,96,2.7,0.0,46,0.00,CLR,,0.00,WeatherDisplay:10.37,2013-02-06 00:01:00,
2013-02-05 16:06:00,56.5,36.5,30.12,WSW,240,2.3,0.0,47,0.00,CLR,,0.00,WeatherDisplay:10.37,2013-02-06 00:06:00,
2013-02-05 16:11:00,55.9,36.5,30.12,WSW,243,2.3,0.0,48,0.00,CLR,,0.00,WeatherDisplay:10.37,2013-02-06 00:11:00,
2013-02-05 16:16:00,55.6,36.7,30.12,WSW,238,2.3,0.0,49,0.00,CLR,,0.00,WeatherDisplay:10.37,2013-02-06 00:16:00,
2013-02-05 16:21:00,55.4,37.1,30.12,SW,227,3.1,0.0,50,0.00,CLR,,0.00,WeatherDisplay:10.37,2013-02-06 00:21:00,
2013-02-05 16:26:00,55.4,37.6,30.12,WSW,245,3.5,0.0,51,0.00,CLR,,0.00,WeatherDisplay:10.37,2013-02-06 00:26:00,
2013-02-05 16:31:00,55.0,37.7,30.15,ENE,61,3.5,3.5,52,0.00,CLR,,0.00,WeatherDisplay:10.37,2013-02-06 00:31:00,
2013-02-05 16:36:00,54.9,38.0,30.15,East,90,0.0,0.0,53,0.00,CLR,,0.00,WeatherDisplay:10.37,2013-02-06 00:36:00,
2013-02-05 16:41:00,54.5,38.2,30.15,ESE,120,2.3,0.0,54,0.00,CLR,,0.00,WeatherDisplay:10.37,2013-02-06 00:41:00,
2013-02-05 16:46:00,54.5,38.2,30.12,NW,318,0.0,0.0,54,0.00,CLR,,0.00,WeatherDisplay:10.37,2013-02-06 00:46:00,
2013-02-05 16:51:00,54.3,38.5,30.12,SSE,149,0.0,0.0,55,0.00,CLR,,0.00,WeatherDisplay:10.37,2013-02-06 00:51:00,
2013-02-05 16:56:00,54.3,38.5,30.12,NNW,329,2.3,0.0,55,0.00,CLR,,0.00,WeatherDisplay:10.37,2013-02-06 00:56:00,
2013-02-05 17:01:00,54.1,38.8,30.12,SW,236,0.0,0.0,56,0.00,CLR,,0.00,WeatherDisplay:10.37,2013-02-06 01:01:00,
2013-02-05 17:06:00,53.8,38.4,30.12,WSW,253,2.3,0.0,56,0.00,CLR,,0.00,WeatherDisplay:10.37,2013-02-06 01:06:00,
2013-02-05 17:11:00,53.4,38.6,30.12,ESE,119,2.3,0.0,57,0.00,CLR,,0.00,WeatherDisplay:10.37,2013-02-06 01:11:00,
2013-02-05 17:16:00,53.1,38.7,30.15,WSW,247,0.0,0.0,58,0.00,CLR,,0.00,WeatherDisplay:10.37,2013-02-06 01:16:00,
2013-02-05 17:21:00,52.9,38.9,30.15,West,271,2.3,0.0,59,0.00,CLR,,0.00,WeatherDisplay:10.37,2013-02-06 01:21:00,
2013-02-05 17:26:00,52.5,38.6,30.15,WSW,240,0.0,0.0,59,0.00,CLR,,0.00,WeatherDisplay:10.37,2013-02-06 01:26:00,
2013-02-05 17:31:00,52.3,38.9,30.15,WSW,238,3.5,0.0,60,0.00,CLR,,0.00,WeatherDisplay:10.37,2013-02-06 01:31:00,
2013-02-05 17:36:00,52.0,39.4,30.15,WSW,253,3.1,0.0,62,0.00,CLR,,0.00,WeatherDisplay:10.37,2013-02-06 01:36:00,
2013-02-05 17:41:00,51.8,39.6,30.15,WSW,246,3.5,3.5,63,0.00,CLR,,0.00,WeatherDisplay:10.37,2013-02-06 01:41:00,
2013-02-05 17:46:00,51.6,40.2,30.15,SW,229,0.0,0.0,65,0.00,CLR,,0.00,WeatherDisplay:10.37,2013-02-06 01:46:00,
2013-02-05 17:51:00,51.6,40.2,30.15,WSW,246,2.3,0.0,65,0.00,CLR,,0.00,WeatherDisplay:10.37,2013-02-06 01:51:00,
2013-02-05 17:56:00,51.4,40.5,30.15,SW,220,2.3,0.0,66,0.00,CLR,,0.00,WeatherDisplay:10.37,2013-02-06 01:56:00,
2013-02-05 18:01:00,51.4,40.8,30.15,SE,132,2.3,0.0,67,0.00,CLR,,0.00,WeatherDisplay:10.37,2013-02-06 02:01:00,
2013-02-05 18:06:00,51.4,40.8,30.15,NE,46,2.3,0.0,67,0.00,CLR,,0.00,WeatherDisplay:10.37,2013-02-06 02:06:00,
2013-02-05 18:11:00,51.3,41.1,30.15,SE,126,2.3,0.0,68,0.00,CLR,,0.00,WeatherDisplay:10.37,2013-02-06 02:11:00,
2013-02-05 18:16:00,51.1,40.9,30.15,South,177,0.0,0.0,68,0.00,CLR,,0.00,WeatherDisplay:10.37,2013-02-06 02:16:00,
2013-02-05 18:21:00,51.1,41.3,30.15,South,191,0.0,0.0,69,0.00,CLR,,0.00,WeatherDisplay:10.37,2013-02-06 02:21:00,
2013-02-05 18:26:00,51.1,41.3,30.15,SSE,167,2.3,0.0,69,0.00,CLR,,0.00,WeatherDisplay:10.37,2013-02-06 02:26:00,
2013-02-05 18:31:00,50.9,41.5,30.15,WNW,300,2.3,0.0,70,0.00,CLR,,0.00,WeatherDisplay:10.37,2013-02-06 02:31:00,
2013-02-05 18:36:00,50.9,41.5,30.15,SSE,147,2.3,0.0,70,0.00,CLR,,0.00,WeatherDisplay:10.37,2013-02-06 02:36:00,
2013-02-05 18:41:00,50.7,41.3,30.15,East,94,0.0,0.0,70,0.00,CLR,,0.00,WeatherDisplay:10.37,2013-02-06 02:41:00,
2013-02-05 18:46:00,50.9,41.8,30.15,East,79,0.0,0.0,71,0.00,CLR,,0.00,WeatherDisplay:10.37,2013-02-06 02:46:00,
2013-02-05 18:51:00,50.9,41.8,30.15,WNW,286,2.3,0.0,71,0.00,CLR,,0.00,WeatherDisplay:10.37,2013-02-06 02:51:00,
2013-02-05 18:56:00,50.7,41.7,30.15,NNE,25,3.5,0.0,71,0.00,CLR,,0.00,WeatherDisplay:10.37,2013-02-06 02:56:00,
2013-02-05 19:01:00,50.5,41.8,30.18,NW,319,0.0,0.0,72,0.00,CLR,,0.00,WeatherDisplay:10.37,2013-02-06 03:01:00,
2013-02-05 19:06:00,50.5,41.8,30.18,North,0,0.0,0.0,72,0.00,CLR,,0.00,WeatherDisplay:10.37,2013-02-06 03:06:00,
2013-02-05 19:11:00,50.5,42.2,30.18,East,97,3.5,0.0,73,0.00,CLR,,0.00,WeatherDisplay:10.37,2013-02-06 03:11:00,
2013-02-05 19:16:00,50.4,42.0,30.18,SSE,151,0.0,0.0,73,0.00,CLR,,0.00,WeatherDisplay:10.37,2013-02-06 03:16:00,
2013-02-05 19:21:00,50.4,42.0,30.18,NNW,332,0.0,0.0,73,0.00,CLR,,0.00,WeatherDisplay:10.37,2013-02-06 03:21:00,
2013-02-05 19:26:00,50.4,42.0,30.18,WNW,284,2.3,0.0,73,0.00,CLR,,0.00,WeatherDisplay:10.37,2013-02-06 03:26:00,
2013-02-05 19:31:00,50.4,42.4,30.18,WSW,245,0.0,0.0,74,0.00,CLR,,0.00,WeatherDisplay:10.37,2013-02-06 03:31:00,
2013-02-05 19:36:00,50.4,42.4,30.18,ENE,59,2.3,0.0,74,0.00,CLR,,0.00,WeatherDisplay:10.37,2013-02-06 03:36:00,
2013-02-05 19:41:00,50.4,42.4,30.18,WSW,238,2.3,0.0,74,0.00,CLR,,0.00,WeatherDisplay:10.37,2013-02-06 03:41:00,
2013-02-05 19:46:00,50.4,42.4,30.18,WSW,252,0.0,0.0,74,0.00,CLR,,0.00,WeatherDisplay:10.37,2013-02-06 03:46:00,
2013-02-05 19:51:00,50.2,42.2,30.18,WSW,257,3.5,0.0,74,0.00,CLR,,0.00,WeatherDisplay:10.37,2013-02-06 03:51:00,
2013-02-05 19:56:00,50.2,42.6,30.18,SSW,199,0.0,0.0,75,0.00,CLR,,0.00,WeatherDisplay:10.37,2013-02-06 03:56:00,
2013-02-05 20:01:00,50.2,42.6,30.18,West,279,0.0,0.0,75,0.00,CLR,,0.00,WeatherDisplay:10.37,2013-02-06 04:01:00,
2013-02-05 20:06:00,50.2,42.6,30.18,SSW,208,0.0,0.0,75,0.00,CLR,,0.00,WeatherDisplay:10.37,2013-02-06 04:06:00,
2013-02-05 20:11:00,50.2,42.6,30.18,WSW,250,2.3,0.0,75,0.00,CLR,,0.00,WeatherDisplay:10.37,2013-02-06 04:11:00,
2013-02-05 20:16:00,50.2,42.6,30.18,WSW,248,2.3,0.0,75,0.00,CLR,,0.00,WeatherDisplay:10.37,2013-02-06 04:16:00,
2013-02-05 20:21:00,50.0,42.4,30.18,SW,228,3.5,0.0,75,0.00,CLR,,0.00,WeatherDisplay:10.37,2013-02-06 04:21:00,
2013-02-05 20:26:00,50.0,42.4,30.18,SSW,208,0.0,0.0,75,0.00,CLR,,0.00,WeatherDisplay:10.37,2013-02-06 04:26:00,
2013-02-05 20:31:00,50.0,42.4,30.18,SSW,203,2.3,0.0,75,0.00,CLR,,0.00,WeatherDisplay:10.37,2013-02-06 04:31:00,
2013-02-05 20:36:00,50.0,42.7,30.18,East,88,3.5,0.0,76,0.00,CLR,,0.00,WeatherDisplay:10.37,2013-02-06 04:36:00,
2013-02-05 20:41:00,49.8,42.6,30.18,SSW,200,0.0,0.0,76,0.00,CLR,,0.00,WeatherDisplay:10.37,2013-02-06 04:41:00,
2013-02-05 20:46:00,49.8,42.6,30.18,WSW,254,2.7,0.0,76,0.00,CLR,,0.00,WeatherDisplay:10.37,2013-02-06 04:46:00,
2013-02-05 20:51:00,49.8,42.6,30.18,WSW,256,0.0,0.0,76,0.00,CLR,,0.00,WeatherDisplay:10.37,2013-02-06 04:51:00,
2013-02-05 20:56:00,49.8,42.9,30.18,NNW,327,0.0,0.0,77,0.00,CLR,,0.00,WeatherDisplay:10.37,2013-02-06 04:56:00,
2013-02-05 21:00:00,49.8,42.9,30.18,West,270,0.0,0.0,77,0.00,CLR,,0.00,WeatherDisplay:10.37,2013-02-06 05:00:00,
2013-02-05 21:05:00,49.8,42.9,30.18,SW,232,0.0,0.0,77,0.00,CLR,,0.00,WeatherDisplay:10.37,2013-02-06 05:05:00,
2013-02-05 21:10:00,49.8,42.9,30.18,West,268,3.5,0.0,77,0.00,CLR,,0.00,WeatherDisplay:10.37,2013-02-06 05:10:00,
2013-02-05 21:15:00,49.6,42.7,30.18,West,268,0.0,0.0,77,0.00,CLR,,0.00,WeatherDisplay:10.37,2013-02-06 05:15:00,
2013-02-05 21:20:00,49.6,42.7,30.18,South,176,0.0,0.0,77,0.00,CLR,,0.00,WeatherDisplay:10.37,2013-02-06 05:20:00,
2013-02-05 21:25:00,49.6,43.1,30.18,South,189,0.0,0.0,78,0.00,CLR,,0.00,WeatherDisplay:10.37,2013-02-06 05:25:00,
2013-02-05 21:30:00,49.6,43.1,30.18,SSW,197,0.0,0.0,78,0.00,CLR,,0.00,WeatherDisplay:10.37,2013-02-06 05:30:00,
2013-02-05 21:35:00,49.6,43.1,30.18,SE,124,0.0,0.0,78,0.00,CLR,,0.00,WeatherDisplay:10.37,2013-02-06 05:35:00,
2013-02-05 21:40:00,49.6,43.1,30.18,WSW,257,2.3,0.0,78,0.00,CLR,,0.00,WeatherDisplay:10.37,2013-02-06 05:40:00,
2013-02-05 21:45:00,49.6,43.1,30.18,WSW,250,0.0,0.0,78,0.00,CLR,,0.00,WeatherDisplay:10.37,2013-02-06 05:45:00,
2013-02-05 21:50:00,49.6,43.1,30.18,South,169,0.0,0.0,78,0.00,CLR,,0.00,WeatherDisplay:10.37,2013-02-06 05:50:00,
2013-02-05 21:55:00,49.6,43.1,30.18,SSW,197,0.0,0.0,78,0.00,CLR,,0.00,WeatherDisplay:10.37,2013-02-06 05:55:00,
2013-02-05 22:00:00,49.5,42.9,30.18,SW,229,0.0,0.0,78,0.00,CLR,,0.00,WeatherDisplay:10.37,2013-02-06 06:00:00,
2013-02-05 22:05:00,49.5,43.2,30.18,SW,229,0.0,0.0,79,0.00,CLR,,0.00,WeatherDisplay:10.37,2013-02-06 06:05:00,
2013-02-05 22:10:00,49.3,43.0,30.18,SW,229,2.3,0.0,79,0.00,CLR,,0.00,WeatherDisplay:10.37,2013-02-06 06:10:00,
2013-02-05 22:15:00,49.3,43.0,30.18,SW,229,0.0,0.0,79,0.00,CLR,,0.00,WeatherDisplay:10.37,2013-02-06 06:15:00,
2013-02-05 22:20:00,49.3,43.0,30.18,NNW,331,0.0,0.0,79,0.00,CLR,,0.00,WeatherDisplay:10.37,2013-02-06 06:20:00,
2013-02-05 22:25:00,49.3,43.0,30.18,NNW,331,0.0,0.0,79,0.00,CLR,,0.00,WeatherDisplay:10.37,2013-02-06 06:25:00,
2013-02-05 22:30:00,49.5,43.2,30.18,SE,131,0.0,0.0,79,0.00,CLR,,0.00,WeatherDisplay:10.37,2013-02-06 06:30:00,
2013-02-05 22:35:00,49.5,43.5,30.18,SE,131,0.0,0.0,80,0.00,CLR,,0.00,WeatherDisplay:10.37,2013-02-06 06:35:00,
2013-02-05 22:40:00,49.5,43.5,30.18,SE,131,0.0,0.0,80,0.00,CLR,,0.00,WeatherDisplay:10.37,2013-02-06 06:40:00,
2013-02-05 22:45:00,49.6,43.7,30.18,SE,131,0.0,0.0,80,0.00,CLR,,0.00,WeatherDisplay:10.37,2013-02-06 06:45:00,
2013-02-05 22:50:00,49.6,43.7,30.18,SSW,205,0.0,0.0,80,0.00,CLR,,0.00,WeatherDisplay:10.37,2013-02-06 06:50:00,
2013-02-05 22:55:00,49.6,43.7,30.18,SW,225,0.0,0.0,80,0.00,CLR,,0.00,WeatherDisplay:10.37,2013-02-06 06:55:00,
2013-02-05 23:00:00,49.6,43.7,30.18,SW,225,0.0,0.0,80,0.00,CLR,,0.00,WeatherDisplay:10.37,2013-02-06 07:00:00,
2013-02-05 23:05:00,49.6,43.7,30.18,West,267,0.0,0.0,80,0.00,CLR,,0.00,WeatherDisplay:10.37,2013-02-06 07:05:00,
2013-02-05 23:10:00,49.6,43.7,30.18,West,267,0.0,0.0,80,0.00,CLR,,0.00,WeatherDisplay:10.37,2013-02-06 07:10:00,
2013-02-05 23:15:00,49.6,43.7,30.18,West,264,0.0,0.0,80,0.00,CLR,,0.00,WeatherDisplay:10.37,2013-02-06 07:15:00,
2013-02-05 23:20:00,49.6,43.7,30.18,WSW,248,0.0,0.0,80,0.00,CLR,,0.00,WeatherDisplay:10.37,2013-02-06 07:20:00,
2013-02-05 23:25:00,49.6,43.7,30.18,WSW,240,2.3,0.0,80,0.00,CLR,,0.00,WeatherDisplay:10.37,2013-02-06 07:25:00,
2013-02-05 23:30:00,49.6,43.7,30.18,SW,227,2.2,0.0,80,0.00,CLR,,0.00,WeatherDisplay:10.37,2013-02-06 07:30:00,
2013-02-05 23:35:00,49.5,43.5,30.18,SW,231,3.5,3.5,80,0.00,CLR,,0.00,WeatherDisplay:10.37,2013-02-06 07:35:00,
2013-02-05 23:40:00,49.5,43.5,30.18,SW,236,0.0,0.0,80,0.00,CLR,,0.00,WeatherDisplay:10.37,2013-02-06 07:40:00,
2013-02-05 23:45:00,49.5,43.5,30.18,WSW,237,2.3,0.0,80,0.00,CLR,,0.00,WeatherDisplay:10.37,2013-02-06 07:45:00,
2013-02-05 23:50:00,49.3,43.7,30.18,WSW,251,3.5,0.0,81,0.00,CLR,,0.00,WeatherDisplay:10.37,2013-02-06 07:50:00,
2013-02-05 23:55:00,49.3,43.7,30.18,WSW,251,0.0,0.0,81,0.00,CLR,,0.00,WeatherDisplay:10.37,2013-02-06 07:55:00,